Time;durP1;ratioP1;P1;durP2;ratioP2;P2;SDS_P1;SDS_P2;PMS_P1;PMS_P2;Temp;Humidity;BMP_temperature;BMP_pressure;BME280_temperature;BME280_humidity;BME280_pressure;Samples;Min_cycle;Max_cycle;Signal;HPM_P1;HPM_P2
2022/03/03 00:01:43;;;;;;;13.40;6.63;;;;;;;0.44;72.63;94492.03;5053621;28;20211;-74
2022/03/03 00:04:10;;;;;;;11.50;5.30;;;;;;;0.42;72.10;94483.50;5053118;28;20272;-75
2022/03/03 00:06:38;;;;;;;9.52;5.03;;;;;;;0.52;72.22;94494.19;5053400;28;20207;-75
2022/03/03 00:09:05;;;;;;;10.52;4.60;;;;;;;0.59;72.49;94485.88;5053586;28;20575;-75
2022/03/03 00:11:34;;;;;;;11.05;5.63;;;;;;;0.57;72.28;94486.16;5053088;28;20211;-75
2022/03/03 00:14:01;;;;;;;10.55;6.43;;;;;;;0.53;72.41;94485.13;5053382;28;20240;-75
2022/03/03 00:16:28;;;;;;;12.07;6.07;;;;;;;0.58;72.39;94477.09;5053468;28;20714;-74
2022/03/03 00:18:55;;;;;;;11.18;4.50;;;;;;;0.59;71.86;94478.69;5053027;28;20207;-77
2022/03/03 00:21:22;;;;;;;7.10;4.95;;;;;;;0.55;72.40;94477.63;5053352;28;20682;-76
2022/03/03 00:23:49;;;;;;;9.00;3.58;;;;;;;0.62;72.09;94475.50;5066304;28;20287;-75
2022/03/03 00:26:16;;;;;;;6.65;3.92;;;;;;;0.64;71.81;94469.91;5053374;28;20204;-74
2022/03/03 00:28:44;;;;;;;10.15;4.43;;;;;;;0.60;71.77;94468.84;5053346;28;20229;-76
2022/03/03 00:31:11;;;;;;;6.68;3.72;;;;;;;0.55;72.00;94466.97;5053048;28;20551;-75
2022/03/03 00:33:38;;;;;;;5.88;3.83;;;;;;;0.61;72.71;94465.09;5053224;28;20572;-75
2022/03/03 00:36:05;;;;;;;10.63;4.35;;;;;;;0.56;72.23;94465.09;5052248;28;20265;-75
2022/03/03 00:38:32;;;;;;;6.05;3.13;;;;;;;0.55;72.34;94472.28;5053102;28;20211;-76
2022/03/03 00:41:00;;;;;;;5.60;3.72;;;;;;;0.62;72.89;94464.03;5052776;28;20195;-75
2022/03/03 00:43:26;;;;;;;8.60;5.22;;;;;;;0.60;72.08;94463.50;5052660;28;20637;-75
2022/03/03 00:45:55;;;;;;;6.97;4.80;;;;;;;0.52;72.41;94451.53;5052766;28;20210;-76
2022/03/03 00:48:21;;;;;;;12.93;5.63;;;;;;;0.56;72.64;94463.25;5052738;28;20226;-75
2022/03/03 00:50:48;;;;;;;11.40;6.53;;;;;;;0.53;72.67;94452.34;5052727;28;20212;-76
2022/03/03 00:53:15;;;;;;;5.88;4.05;;;;;;;0.58;72.80;94462.97;5052312;28;20594;-75
2022/03/03 00:55:42;;;;;;;10.65;7.47;;;;;;;0.55;72.89;94471.50;5052471;28;20211;-75
2022/03/03 00:58:10;;;;;;;14.85;5.22;;;;;;;0.60;73.03;94469.63;5052710;28;20536;-75
2022/03/03 01:00:37;;;;;;;10.25;4.78;;;;;;;0.55;72.94;94460.84;5042888;28;20307;-75
2022/03/03 01:03:06;;;;;;;10.50;5.43;;;;;;;0.54;72.34;94465.41;5031999;28;20240;-74
2022/03/03 01:05:33;;;;;;;4.72;2.90;;;;;;;0.59;73.39;94461.91;5031984;28;20287;-74
2022/03/03 01:08:00;;;;;;;9.63;4.50;;;;;;;0.59;72.22;94457.38;5032031;28;20229;-76
2022/03/03 01:10:26;;;;;;;4.35;2.25;;;;;;;0.68;72.64;94466.41;5032459;28;20219;-75
2022/03/03 01:12:54;;;;;;;35.03;4.82;;;;;;;0.69;72.48;94468.00;5032354;28;20656;-75
2022/03/03 01:15:21;;;;;;;8.40;3.75;;;;;;;0.62;72.42;94450.72;5042178;28;20224;-75
2022/03/03 01:17:48;;;;;;;9.43;4.18;;;;;;;0.64;72.37;94462.72;5051708;28;20349;-75
2022/03/03 01:20:16;;;;;;;9.35;4.80;;;;;;;0.68;73.03;94460.31;5051225;28;20750;-75
2022/03/03 01:22:43;;;;;;;9.60;5.93;;;;;;;0.65;72.61;94463.50;5052290;28;20223;-75
2022/03/03 01:25:10;;;;;;;10.10;5.47;;;;;;;0.62;72.74;94462.19;5040536;28;20208;-75
2022/03/03 01:27:38;;;;;;;9.50;5.22;;;;;;;0.54;72.62;94460.06;5031797;28;20227;-74
2022/03/03 01:30:05;;;;;;;13.90;4.93;;;;;;;0.58;72.92;94461.09;5032232;28;20232;-75
2022/03/03 01:32:33;;;;;;;9.65;5.25;;;;;;;0.65;73.13;94456.31;5031690;28;20218;-74
2022/03/03 01:35:00;;;;;;;5.10;3.72;;;;;;;0.64;72.89;94460.03;5031395;28;20425;-75
2022/03/03 01:37:28;;;;;;;16.40;5.95;;;;;;;0.66;73.05;94447.25;5051524;28;20294;-75
2022/03/03 01:39:55;;;;;;;10.57;5.53;;;;;;;0.53;73.52;94447.81;5051662;28;20215;-75
2022/03/03 01:42:22;;;;;;;9.10;5.47;;;;;;;0.52;72.96;94446.22;5051244;28;20246;-74
2022/03/03 01:44:50;;;;;;;6.35;4.25;;;;;;;0.54;73.73;94433.41;5050572;28;20650;-74
2022/03/03 01:47:19;;;;;;;11.25;4.88;;;;;;;0.55;73.95;94440.31;5051125;28;20215;-74
2022/03/03 01:49:46;;;;;;;7.18;3.33;;;;;;;0.51;73.68;94433.97;5038127;28;20208;-73
2022/03/03 01:52:14;;;;;;;9.27;5.70;;;;;;;0.45;74.02;94435.03;5031757;28;20212;-74
2022/03/03 01:54:42;;;;;;;11.57;6.10;;;;;;;0.46;74.41;94444.59;5031509;28;20683;-74
2022/03/03 01:57:10;;;;;;;9.05;5.55;;;;;;;0.44;74.21;94421.97;5030825;28;20265;-74
2022/03/03 01:59:38;;;;;;;8.48;5.32;;;;;;;0.40;74.29;94426.25;5031600;28;20232;-75
2022/03/03 02:02:07;;;;;;;13.35;5.70;;;;;;;0.45;74.22;94424.34;5051458;28;20563;-76
2022/03/03 02:04:34;;;;;;;6.53;4.18;;;;;;;0.43;74.20;94431.81;5050395;28;20215;-76
2022/03/03 02:07:02;;;;;;;10.18;5.38;;;;;;;0.40;74.61;94421.72;5051769;28;20227;-75
2022/03/03 02:09:29;;;;;;;10.32;4.65;;;;;;;0.48;74.09;94429.16;5050424;28;20653;-74
2022/03/03 02:11:57;;;;;;;9.45;4.95;;;;;;;0.49;74.61;94425.44;5051408;28;20199;-75
2022/03/03 02:14:24;;;;;;;9.07;5.18;;;;;;;0.54;73.58;94420.09;5051255;28;20232;-74
2022/03/03 02:16:51;;;;;;;9.45;5.00;;;;;;;0.56;74.37;94425.13;5050927;28;20220;-75
2022/03/03 02:19:19;;;;;;;17.77;7.72;;;;;;;0.47;74.95;94430.22;5034672;28;20212;-74
2022/03/03 02:21:49;;;;;;;13.32;6.78;;;;;;;0.50;74.60;94421.69;5031089;28;20224;-75
2022/03/03 02:24:17;;;;;;;9.38;5.03;;;;;;;0.54;74.41;94425.44;5049679;28;20650;-74
2022/03/03 02:26:44;;;;;;;9.82;5.22;;;;;;;0.46;74.71;94425.97;5051013;28;20211;-74
2022/03/03 02:29:11;;;;;;;13.07;5.70;;;;;;;0.55;74.18;94419.00;5050875;28;20207;-73
2022/03/03 02:31:40;;;;;;;8.38;4.50;;;;;;;0.51;74.22;94417.97;5050946;28;20219;-74
2022/03/03 02:34:07;;;;;;;9.95;4.70;;;;;;;0.58;73.89;94418.47;5050879;28;20227;-74
2022/03/03 02:36:34;;;;;;;6.57;4.22;;;;;;;0.62;74.30;94418.72;5051168;28;20218;-74
2022/03/03 02:39:05;;;;;;;12.27;6.53;;;;;;;0.53;74.54;94423.84;5050824;28;20215;-74
2022/03/03 02:41:33;;;;;;;11.10;6.32;;;;;;;0.56;74.31;94425.13;5050434;28;20241;-74
2022/03/03 02:44:02;;;;;;;9.25;4.75;;;;;;;0.65;74.75;94424.34;5051035;28;20543;-74
2022/03/03 02:46:29;;;;;;;12.70;7.18;;;;;;;0.61;74.36;94425.13;5050783;28;20638;-74
2022/03/03 02:48:56;;;;;;;8.30;5.28;;;;;;;0.65;75.08;94421.66;5050435;28;20222;-75
2022/03/03 02:51:23;;;;;;;12.77;5.88;;;;;;;0.61;74.83;94428.59;5050745;28;20203;-75
2022/03/03 02:53:49;;;;;;;12.10;6.32;;;;;;;0.58;75.22;94423.00;5051154;28;20274;-75
2022/03/03 02:56:18;;;;;;;11.77;5.57;;;;;;;0.62;74.50;94429.41;5050703;28;20217;-74
2022/03/03 02:58:44;;;;;;;10.93;5.40;;;;;;;0.56;74.77;94428.59;5050758;28;20211;-74
2022/03/03 03:01:11;;;;;;;11.85;5.75;;;;;;;0.64;75.49;94432.59;5049440;28;20603;-74
2022/03/03 03:03:39;;;;;;;9.20;5.22;;;;;;;0.64;75.06;94417.41;5030845;28;20250;-74
2022/03/03 03:06:06;;;;;;;11.40;5.72;;;;;;;0.67;74.91;94422.19;5031702;28;20266;-75
2022/03/03 03:08:33;;;;;;;12.70;6.05;;;;;;;0.67;75.22;94421.41;5031294;28;20282;-74
2022/03/03 03:11:00;;;;;;;8.90;4.63;;;;;;;0.57;75.95;94424.88;5030317;28;20254;-74
2022/03/03 03:13:28;;;;;;;9.85;5.53;;;;;;;0.52;75.40;94416.91;5031132;28;20222;-74
2022/03/03 03:15:55;;;;;;;13.02;5.30;;;;;;;0.45;76.08;94416.38;5033059;28;20222;-74
2022/03/03 03:18:23;;;;;;;10.30;6.05;;;;;;;0.45;75.99;94426.22;5034698;28;20200;-75
2022/03/03 03:20:51;;;;;;;10.45;5.30;;;;;;;0.50;76.06;94429.69;5036515;28;20527;-74
2022/03/03 03:23:20;;;;;;;15.98;6.38;;;;;;;0.47;76.27;94422.22;5055075;28;20560;-74
2022/03/03 03:25:47;;;;;;;15.40;7.65;;;;;;;0.48;76.14;94429.16;5054564;28;20238;-77
2022/03/03 03:28:15;;;;;;;10.45;6.07;;;;;;;0.53;76.08;94429.16;5054386;28;20223;-74
2022/03/03 03:30:44;;;;;;;7.20;4.85;;;;;;;0.49;76.10;94425.44;5053865;28;20211;-75
2022/03/03 03:33:11;;;;;;;9.32;5.47;;;;;;;0.39;76.59;94424.66;5054262;28;20326;-74
2022/03/03 03:35:39;;;;;;;8.63;5.45;;;;;;;0.39;76.47;94424.66;5050265;28;20356;-75
2022/03/03 03:38:06;;;;;;;13.25;6.93;;;;;;;0.35;76.65;94424.38;5034224;28;20204;-74
2022/03/03 03:40:33;;;;;;;9.77;5.72;;;;;;;0.33;77.12;94415.84;5052178;28;20207;-75
2022/03/03 03:43:00;;;;;;;11.43;5.13;;;;;;;0.43;77.04;94433.69;5054094;28;20239;-75
2022/03/03 03:45:27;;;;;;;9.55;5.97;;;;;;;0.43;76.62;94425.69;5054113;28;20204;-75
2022/03/03 03:47:55;;;;;;;11.85;6.93;;;;;;;0.42;76.40;94418.75;5053758;28;20678;-75
2022/03/03 03:50:22;;;;;;;13.38;7.68;;;;;;;0.41;76.45;94433.19;5053324;28;20255;-75
2022/03/03 03:52:49;;;;;;;8.00;5.25;;;;;;;0.47;76.45;94427.56;5053748;28;20207;-75
2022/03/03 03:55:16;;;;;;;9.82;6.57;;;;;;;0.41;76.01;94412.63;5053973;28;20235;-76
2022/03/03 03:57:43;;;;;;;11.38;6.05;;;;;;;0.48;75.74;94417.69;5053880;28;20272;-75
2022/03/03 04:00:12;;;;;;;9.93;5.13;;;;;;;0.46;76.24;94420.63;5053844;28;20803;-76
2022/03/03 04:02:39;;;;;;;11.20;5.50;;;;;;;0.47;75.86;94422.22;5053531;28;20196;-76
2022/03/03 04:05:08;;;;;;;11.82;5.75;;;;;;;0.40;75.78;94421.72;5053927;28;20200;-76
2022/03/03 04:07:35;;;;;;;7.68;4.80;;;;;;;0.47;76.15;94422.22;5053861;28;20203;-75
2022/03/03 04:10:02;;;;;;;9.68;5.93;;;;;;;0.43;76.36;94415.84;5053443;28;20215;-76
2022/03/03 04:12:29;;;;;;;8.50;6.10;;;;;;;0.42;76.16;94408.91;5053213;28;20199;-77
2022/03/03 04:14:56;;;;;;;9.63;4.85;;;;;;;0.40;76.44;94410.28;5033366;28;20314;-75
2022/03/03 04:17:23;;;;;;;8.90;4.88;;;;;;;0.37;76.45;94411.59;5033518;28;20228;-74
2022/03/03 04:19:50;;;;;;;13.02;6.32;;;;;;;0.35;76.09;94393.22;5033334;28;20204;-75
2022/03/03 04:22:19;;;;;;;10.90;6.22;;;;;;;0.39;76.12;94404.13;5035448;28;20232;-75
2022/03/03 04:24:46;;;;;;;14.05;5.28;;;;;;;0.44;76.10;94406.78;5045906;28;20208;-75
2022/03/03 04:27:12;;;;;;;7.80;5.10;;;;;;;0.33;76.35;94411.34;5032628;28;20278;-75
2022/03/03 04:29:39;;;;;;;15.63;6.60;;;;;;;0.38;76.04;94413.19;5033856;28;20217;-75
2022/03/03 04:32:07;;;;;;;14.93;5.78;;;;;;;0.39;76.11;94414.78;5032874;28;20211;-75
2022/03/03 04:34:34;;;;;;;11.75;6.78;;;;;;;0.30;76.39;94411.06;5033246;28;20247;-75
2022/03/03 04:37:01;;;;;;;10.90;6.28;;;;;;;0.28;75.90;94403.34;5032810;28;20204;-75
2022/03/03 04:39:29;;;;;;;18.25;7.28;;;;;;;0.37;76.24;94400.94;5033302;28;20286;-75
2022/03/03 04:41:56;;;;;;;12.93;6.82;;;;;;;0.37;75.90;94410.81;5035572;28;20232;-75
2022/03/03 04:44:23;;;;;;;10.65;5.28;;;;;;;0.29;76.38;94420.91;5043834;28;20497;-75
2022/03/03 04:46:50;;;;;;;15.52;5.75;;;;;;;0.33;76.20;94406.00;5032824;28;20227;-75
2022/03/03 04:49:16;;;;;;;7.90;4.28;;;;;;;0.34;76.69;94401.47;5033200;28;20208;-75
2022/03/03 04:51:43;;;;;;;14.02;6.80;;;;;;;0.30;76.32;94411.06;5032646;28;20201;-75
2022/03/03 04:54:11;;;;;;;13.30;7.25;;;;;;;0.35;76.49;94409.19;5032636;28;20224;-75
2022/03/03 04:56:40;;;;;;;12.43;6.57;;;;;;;0.33;76.39;94402.53;5035985;28;20223;-75
2022/03/03 04:59:07;;;;;;;10.60;4.90;;;;;;;0.39;75.86;94403.34;5052786;28;20223;-75
2022/03/03 05:01:35;;;;;;;7.53;4.85;;;;;;;0.35;75.86;94403.06;5052632;28;20204;-75
2022/03/03 05:04:01;;;;;;;9.77;5.07;;;;;;;0.40;76.22;94405.75;5052225;28;20207;-77
2022/03/03 05:06:29;;;;;;;16.58;7.97;;;;;;;0.28;75.67;94405.19;5052050;28;20207;-76
2022/03/03 05:08:55;;;;;;;10.15;5.38;;;;;;;0.38;75.99;94397.22;5052595;28;20266;-75
2022/03/03 05:11:22;;;;;;;15.05;7.03;;;;;;;0.40;75.83;94404.94;5052738;28;20208;-75
2022/03/03 05:13:50;;;;;;;12.30;4.97;;;;;;;0.36;75.35;94407.34;5052175;28;20602;-75
2022/03/03 05:16:18;;;;;;;10.70;5.35;;;;;;;0.37;76.03;94405.47;5050671;28;20255;-75
2022/03/03 05:18:44;;;;;;;9.80;6.53;;;;;;;0.34;76.39;94402.28;5052362;28;20204;-75
2022/03/03 05:21:12;;;;;;;12.75;6.15;;;;;;;0.34;76.45;94406.81;5032653;28;20212;-75
2022/03/03 05:23:40;;;;;;;9.95;5.50;;;;;;;0.39;75.48;94403.34;5057593;28;20264;-75
2022/03/03 05:26:07;;;;;;;11.60;5.75;;;;;;;0.42;75.27;94398.25;5039061;28;20234;-75
2022/03/03 05:28:34;;;;;;;11.40;5.50;;;;;;;0.52;75.60;94403.59;5052106;28;20266;-75
2022/03/03 05:31:02;;;;;;;17.10;8.20;;;;;;;0.53;75.21;94415.84;5051980;28;20207;-75
2022/03/03 05:33:30;;;;;;;12.63;5.45;;;;;;;0.49;75.36;94412.09;5051868;28;20203;-75
2022/03/03 05:35:59;;;;;;;12.13;6.57;;;;;;;0.53;76.10;94413.16;5051605;28;20292;-75
2022/03/03 05:38:31;;;;;;;12.85;4.85;;;;;;;0.48;75.54;94412.38;5051231;28;20199;-75
2022/03/03 05:40:59;;;;;;;19.90;6.47;;;;;;;0.49;75.73;94414.78;5032046;28;20192;-75
2022/03/03 05:43:27;;;;;;;4.78;3.50;;;;;;;0.61;75.40;94407.28;5045206;28;20200;-75
2022/03/03 05:45:55;;;;;;;11.25;4.25;;;;;;;0.56;74.44;94401.94;5032016;28;20254;-74
2022/03/03 05:48:25;;;;;;;9.23;4.85;;;;;;;0.58;74.31;94407.00;5047263;28;20207;-75
2022/03/03 05:50:53;;;;;;;14.40;7.90;;;;;;;0.53;74.42;94409.72;5051689;28;20200;-77
2022/03/03 05:53:21;;;;;;;9.25;5.15;;;;;;;0.52;73.85;94403.59;5050936;28;20209;-76
2022/03/03 05:55:50;;;;;;;13.48;6.45;;;;;;;0.64;73.66;94406.75;5051340;28;20713;-76
2022/03/03 05:58:19;;;;;;;17.60;6.50;;;;;;;0.65;73.76;94408.34;5051369;28;20858;-76
2022/03/03 06:00:47;;;;;;;7.00;4.53;;;;;;;0.79;73.29;94413.91;5050941;28;20227;-77
2022/03/03 06:03:16;;;;;;;10.35;4.65;;;;;;;0.88;73.90;94414.13;5051600;28;20207;-74
2022/03/03 06:05:49;;;;;;;13.35;6.30;;;;;;;0.80;73.51;94414.69;5050956;28;20210;-77
2022/03/03 06:08:18;;;;;;;12.82;6.10;;;;;;;0.85;73.25;94412.00;5051564;28;20305;-76
2022/03/03 06:10:50;;;;;;;12.00;6.55;;;;;;;0.89;72.81;94415.72;5051097;28;20269;-75
2022/03/03 06:13:36;;;;;;;9.25;4.78;;;;;;;0.97;72.06;94402.63;5050907;28;20238;-75
2022/03/03 06:16:05;;;;;;;10.98;6.13;;;;;;;1.15;72.02;94411.88;5048439;28;20243;-76
2022/03/03 06:18:33;;;;;;;11.80;5.70;;;;;;;1.11;72.39;94404.69;5031766;28;20211;-76
2022/03/03 06:21:01;;;;;;;9.70;5.35;;;;;;;1.15;71.10;94406.53;5031042;28;20215;-76
2022/03/03 06:23:28;;;;;;;13.95;6.38;;;;;;;1.13;71.50;94408.69;5042789;28;20211;-76
2022/03/03 06:26:03;;;;;;;10.80;5.68;;;;;;;1.05;71.32;94401.25;5046328;28;20216;-76
2022/03/03 06:28:30;;;;;;;14.65;5.68;;;;;;;1.04;71.63;94405.00;5031178;28;20259;-76
2022/03/03 06:30:57;;;;;;;11.50;6.18;;;;;;;1.23;70.58;94391.84;5030916;28;20212;-76
2022/03/03 06:33:25;;;;;;;9.40;5.03;;;;;;;1.28;69.98;94399.81;5031106;28;20208;-76
2022/03/03 06:35:52;;;;;;;14.32;6.85;;;;;;;1.33;70.03;94408.59;5037443;28;20322;-77
2022/03/03 06:38:20;;;;;;;15.23;7.60;;;;;;;1.40;70.62;94403.75;5051011;28;20697;-76
2022/03/03 06:40:47;;;;;;;13.23;6.70;;;;;;;1.34;69.26;94394.19;5037468;28;20238;-76
2022/03/03 06:43:14;;;;;;;18.35;6.07;;;;;;;1.45;68.93;94405.59;5051163;28;20204;-75
2022/03/03 06:45:41;;;;;;;8.82;5.35;;;;;;;1.50;68.59;94402.91;5051035;28;20211;-75
2022/03/03 06:48:08;;;;;;;8.48;4.53;;;;;;;1.57;68.36;94402.59;5050636;28;20203;-76
2022/03/03 06:50:37;;;;;;;17.45;6.75;;;;;;;1.58;68.67;94406.84;5050412;28;20212;-75
2022/03/03 06:53:04;;;;;;;13.82;7.35;;;;;;;1.59;68.74;94405.78;5050336;28;20292;-76
2022/03/03 06:55:34;;;;;;;12.20;7.10;;;;;;;1.80;68.03;94401.88;5050179;28;20234;-76
2022/03/03 06:58:01;;;;;;;12.30;6.78;;;;;;;1.78;67.90;94414.72;5050683;28;20204;-76
2022/03/03 07:00:33;;;;;;;8.57;4.75;;;;;;;1.89;66.82;94410.13;5050678;28;20234;-76
2022/03/03 07:03:01;;;;;;;18.63;8.13;;;;;;;1.76;67.52;94419.56;5047728;28;20212;-76
2022/03/03 07:05:30;;;;;;;13.18;4.80;;;;;;;1.63;67.32;94417.50;5030239;28;20212;-77
2022/03/03 07:07:57;;;;;;;14.98;8.45;;;;;;;1.69;67.24;94422.53;5030403;28;20422;-77
2022/03/03 07:10:25;;;;;;;12.18;5.88;;;;;;;1.80;67.49;94420.56;5030326;28;20208;-76
2022/03/03 07:12:54;;;;;;;16.02;7.93;;;;;;;2.00;66.94;94420.44;5030315;28;20574;-76
2022/03/03 07:15:22;;;;;;;12.77;5.70;;;;;;;2.16;65.95;94404.28;5030035;28;20232;-76
2022/03/03 07:17:51;;;;;;;14.48;6.45;;;;;;;2.55;65.05;94423.72;5030200;28;20219;-76
2022/03/03 07:20:22;;;;;;;12.80;5.88;;;;;;;2.90;63.90;94405.69;5030477;28;20266;-76
2022/03/03 07:23:01;;;;;;;10.48;5.78;;;;;;;2.83;62.75;94398.00;5041739;28;20701;-78
2022/03/03 07:25:38;;;;;;;15.00;6.15;;;;;;;2.64;63.60;94415.84;5056233;28;20199;-78
2022/03/03 07:28:07;;;;;;;8.43;4.22;;;;;;;2.51;64.03;94411.97;5049613;28;20227;-76
2022/03/03 07:30:41;;;;;;;10.85;5.53;;;;;;;2.40;64.92;94405.94;5049694;28;20265;-79
2022/03/03 07:33:12;;;;;;;11.63;4.95;;;;;;;2.10;65.28;94415.00;5050772;28;20235;-79
2022/03/03 07:35:43;;;;;;;9.43;5.18;;;;;;;2.07;65.10;94407.53;5050473;28;20220;-79
2022/03/03 07:38:15;;;;;;;14.68;6.43;;;;;;;1.98;65.82;94397.75;5050598;28;20594;-79
2022/03/03 07:40:44;;;;;;;14.40;5.82;;;;;;;2.05;65.16;94404.34;5050169;28;20207;-79
2022/03/03 07:43:13;;;;;;;10.45;4.90;;;;;;;2.00;65.57;94400.94;5050376;28;20227;-78
2022/03/03 07:45:41;;;;;;;8.27;5.07;;;;;;;2.19;64.17;94398.41;5050303;28;20667;-79
2022/03/03 07:48:08;;;;;;;19.02;7.53;;;;;;;2.02;65.13;94410.28;5036888;28;20652;-79
2022/03/03 07:50:39;;;;;;;8.35;5.03;;;;;;;2.09;64.49;94401.94;5030361;28;20423;-78
2022/03/03 07:53:07;;;;;;;9.98;5.43;;;;;;;2.26;64.95;94405.00;5030521;28;20205;-78
2022/03/03 07:55:38;;;;;;;11.82;6.47;;;;;;;2.22;64.62;94405.81;5030035;28;20268;-79
2022/03/03 07:58:12;;;;;;;16.95;6.30;;;;;;;2.40;64.80;94405.94;5029864;28;20203;-79
2022/03/03 08:00:46;;;;;;;9.98;5.40;;;;;;;2.38;63.96;94412.63;5030436;28;20335;-80
2022/03/03 08:03:16;;;;;;;10.32;5.72;;;;;;;2.31;64.31;94417.53;5033379;28;20199;-79
2022/03/03 08:05:45;;;;;;;6.45;4.35;;;;;;;2.55;63.76;94415.69;5033559;28;20215;-79
2022/03/03 08:08:14;;;;;;;16.33;6.63;;;;;;;2.55;63.85;94412.22;5052875;28;20204;-80
2022/03/03 08:10:42;;;;;;;9.48;5.60;;;;;;;2.57;63.69;94420.75;5053216;28;20294;-80
2022/03/03 08:13:11;;;;;;;9.10;4.25;;;;;;;2.46;63.59;94414.72;5053465;28;20224;-79
2022/03/03 08:15:40;;;;;;;11.63;5.88;;;;;;;2.72;63.43;94421.41;5053043;28;20231;-78
2022/03/03 08:18:08;;;;;;;11.98;5.43;;;;;;;2.93;63.37;94415.81;5053785;28;20226;-78
2022/03/03 08:20:36;;;;;;;14.40;7.32;;;;;;;2.62;62.94;94410.78;5052919;28;20200;-77
2022/03/03 08:23:07;;;;;;;10.30;4.97;;;;;;;2.76;63.24;94414.38;5041337;28;20289;-78
2022/03/03 08:25:36;;;;;;;12.40;4.97;;;;;;;3.01;62.65;94409.81;5053522;28;20207;-78
2022/03/03 08:28:04;;;;;;;8.55;4.75;;;;;;;2.85;63.00;94409.22;5044570;28;20296;-77
2022/03/03 08:30:31;;;;;;;10.50;5.43;;;;;;;3.10;62.69;94408.13;5033346;28;20235;-79
2022/03/03 08:33:08;;;;;;;12.02;6.00;;;;;;;3.11;62.58;94415.88;5033338;28;20323;-78
2022/03/03 08:35:37;;;;;;;21.20;5.88;;;;;;;3.03;62.11;94413.03;5033356;28;20315;-77
2022/03/03 08:38:07;;;;;;;10.48;4.30;;;;;;;3.48;61.10;94409.78;5033316;28;20304;-78
2022/03/03 08:40:36;;;;;;;7.05;4.85;;;;;;;3.93;60.19;94410.22;5051309;28;20214;-80
2022/03/03 08:43:06;;;;;;;8.32;4.65;;;;;;;4.29;59.20;94403.22;5052463;28;20235;-79
2022/03/03 08:45:34;;;;;;;12.40;6.95;;;;;;;4.11;58.81;94406.72;5053378;28;20207;-80
2022/03/03 08:48:06;;;;;;;10.95;6.38;;;;;;;3.42;60.45;94405.56;5053273;28;20269;-78
2022/03/03 08:50:35;;;;;;;13.13;6.13;;;;;;;3.57;61.23;94408.03;5053002;28;20220;-79
2022/03/03 08:53:03;;;;;;;9.15;5.85;;;;;;;3.55;60.86;94412.88;5053046;28;20659;-79
2022/03/03 08:55:31;;;;;;;11.30;6.38;;;;;;;3.48;60.76;94404.44;5053121;28;20235;-79
2022/03/03 08:57:59;;;;;;;14.88;7.72;;;;;;;3.62;60.75;94404.50;5052545;28;20681;-80
2022/03/03 09:00:28;;;;;;;14.35;7.20;;;;;;;3.50;61.26;94418.31;5051981;28;20630;-78
2022/03/03 09:02:55;;;;;;;12.15;6.10;;;;;;;3.33;61.28;94412.66;5039554;28;20287;-77
2022/03/03 09:05:24;;;;;;;10.15;6.03;;;;;;;3.47;60.69;94397.47;5052533;28;20211;-78
2022/03/03 09:07:51;;;;;;;12.18;5.03;;;;;;;3.51;60.88;94390.47;5052172;28;20681;-77
2022/03/03 09:10:19;;;;;;;11.68;5.68;;;;;;;3.39;60.01;94390.09;5052512;28;20239;-77
2022/03/03 09:12:46;;;;;;;8.68;5.50;;;;;;;3.43;61.03;94393.78;5051470;28;20668;-77
2022/03/03 09:15:16;;;;;;;12.23;5.53;;;;;;;3.83;60.68;94395.09;5052080;28;20203;-77
2022/03/03 09:17:44;;;;;;;10.38;5.30;;;;;;;3.79;59.79;94393.28;5052177;28;20204;-78
2022/03/03 09:20:14;;;;;;;10.85;5.40;;;;;;;4.16;59.83;94403.97;5052146;28;20275;-77
2022/03/03 09:22:44;;;;;;;11.13;5.75;;;;;;;4.05;59.84;94391.81;5052157;28;20491;-80
2022/03/03 09:25:11;;;;;;;10.15;5.78;;;;;;;4.19;59.07;94391.88;5052299;28;20207;-79
2022/03/03 09:27:38;;;;;;;8.70;5.70;;;;;;;3.72;59.55;94398.19;5051745;28;20261;-78
2022/03/03 09:30:06;;;;;;;17.63;7.82;;;;;;;3.57;60.54;94407.25;5039469;28;20447;-80
2022/03/03 09:32:33;;;;;;;10.55;5.60;;;;;;;3.88;60.76;94405.72;5031521;28;20200;-78
2022/03/03 09:35:00;;;;;;;5.70;3.25;;;;;;;3.97;58.81;94399.69;5032111;28;20208;-78
2022/03/03 09:37:29;;;;;;;9.20;4.72;;;;;;;4.39;58.34;94401.44;5031921;28;20244;-80
2022/03/03 09:39:57;;;;;;;13.27;6.80;;;;;;;4.61;57.99;94388.19;5031993;28;20223;-79
2022/03/03 09:42:27;;;;;;;11.60;5.97;;;;;;;4.26;58.57;94386.91;5037403;28;20248;-78
2022/03/03 09:44:54;;;;;;;10.88;6.93;;;;;;;4.09;58.63;94386.69;5050789;28;20311;-79
2022/03/03 09:47:21;;;;;;;7.32;4.68;;;;;;;4.28;59.29;94390.88;5052190;28;20602;-78
2022/03/03 09:49:48;;;;;;;8.82;5.30;;;;;;;4.38;58.24;94383.75;5053678;28;20227;-78
2022/03/03 09:52:16;;;;;;;14.80;6.88;;;;;;;4.43;58.24;94389.84;5052023;28;20203;-79
2022/03/03 09:54:44;;;;;;;16.67;10.15;;;;;;;4.43;58.02;94386.34;5051633;28;20393;-78
2022/03/03 09:57:15;;;;;;;14.57;7.38;;;;;;;4.53;57.82;94386.19;5051069;28;20706;-77
2022/03/03 09:59:42;;;;;;;11.80;5.85;;;;;;;4.51;57.83;94383.78;5051051;28;20278;-78
2022/03/03 10:02:09;;;;;;;11.45;6.32;;;;;;;4.87;57.96;94381.25;5051229;28;20211;-78
2022/03/03 10:04:36;;;;;;;11.10;5.40;;;;;;;4.84;57.52;94376.47;5051542;28;20550;-78
2022/03/03 10:07:05;;;;;;;9.65;5.75;;;;;;;4.78;56.62;94377.69;5051366;28;20291;-78
2022/03/03 10:09:33;;;;;;;10.80;6.47;;;;;;;5.11;56.94;94374.88;5050754;28;20235;-78
2022/03/03 10:12:01;;;;;;;12.50;6.20;;;;;;;4.90;56.71;94378.00;5051218;28;20681;-77
2022/03/03 10:14:32;;;;;;;13.52;5.78;;;;;;;4.96;57.49;94384.84;5050716;28;20239;-78
2022/03/03 10:16:59;;;;;;;15.52;7.07;;;;;;;4.90;57.54;94375.31;5050922;28;20247;-79
2022/03/03 10:19:26;;;;;;;8.30;5.63;;;;;;;4.59;56.50;94375.06;5051482;28;20659;-76
2022/03/03 10:21:53;;;;;;;8.25;4.35;;;;;;;4.28;57.51;94380.16;5051253;28;20627;-78
2022/03/03 10:24:24;;;;;;;14.95;8.38;;;;;;;4.43;58.17;94386.34;5051086;28;20208;-77
2022/03/03 10:26:57;;;;;;;6.57;4.00;;;;;;;4.36;57.29;94385.97;5050952;28;20690;-77
2022/03/03 10:29:24;;;;;;;13.63;5.53;;;;;;;4.47;56.90;94387.38;5051416;28;20227;-76
2022/03/03 10:31:54;;;;;;;13.27;5.45;;;;;;;4.47;56.45;94382.81;5051071;28;20614;-78
2022/03/03 10:34:22;;;;;;;11.52;5.88;;;;;;;4.80;57.00;94374.69;5050629;28;20212;-78
2022/03/03 10:37:00;;;;;;;14.52;7.03;;;;;;;4.82;56.92;94373.28;5037434;28;20650;-79
2022/03/03 10:39:38;;;;;;;12.10;7.55;;;;;;;5.06;57.04;94361.59;5039324;28;20199;-78
2022/03/03 10:42:13;;;;;;;9.82;4.78;;;;;;;5.00;55.14;94363.56;5050429;28;20706;-77
2022/03/03 10:44:40;;;;;;;8.85;5.05;;;;;;;5.22;54.82;94352.09;5050886;28;20701;-77
2022/03/03 10:47:11;;;;;;;10.45;5.80;;;;;;;5.33;55.13;94348.91;5049672;28;20208;-76
2022/03/03 10:49:40;;;;;;;13.35;6.55;;;;;;;5.37;55.51;94335.66;5050822;28;20203;-77
2022/03/03 10:52:12;;;;;;;17.02;9.63;;;;;;;5.28;56.19;94350.91;5050698;28;20207;-76
2022/03/03 10:54:54;;;;;;;14.63;8.35;;;;;;;5.35;54.96;94348.59;5050736;28;20732;-77
2022/03/03 10:57:34;;;;;;;15.60;9.20;;;;;;;4.92;56.37;94356.22;5050572;28;20232;-77
2022/03/03 11:00:03;;;;;;;13.13;8.93;;;;;;;4.91;55.88;94360.78;5050877;28;20228;-78
2022/03/03 11:02:33;;;;;;;14.82;8.63;;;;;;;4.88;56.30;94356.03;5050314;28;20211;-75
2022/03/03 11:05:02;;;;;;;11.35;5.18;;;;;;;4.63;56.71;94361.88;5050107;28;20235;-78
2022/03/03 11:07:30;;;;;;;10.95;6.07;;;;;;;4.48;57.48;94348.75;5050464;28;20214;-77
2022/03/03 11:09:57;;;;;;;9.73;5.28;;;;;;;4.72;57.97;94356.59;5050541;28;20203;-76
2022/03/03 11:12:27;;;;;;;9.27;5.85;;;;;;;4.64;56.32;94350.84;5050793;28;20231;-77
2022/03/03 11:14:56;;;;;;;8.50;4.13;;;;;;;4.82;56.65;94361.78;5050649;28;20228;-77
2022/03/03 11:17:24;;;;;;;8.05;4.20;;;;;;;4.79;56.19;94351.63;5049348;28;20318;-74
2022/03/03 11:19:58;;;;;;;10.02;4.43;;;;;;;4.71;56.38;94360.38;5030336;28;20215;-76
2022/03/03 11:22:25;;;;;;;9.15;5.28;;;;;;;4.92;56.08;94362.34;5033276;28;20220;-76
2022/03/03 11:24:53;;;;;;;10.35;5.78;;;;;;;4.76;56.42;94358.41;5050212;28;20223;-75
2022/03/03 11:27:20;;;;;;;8.93;5.78;;;;;;;4.44;57.26;94364.63;5049891;28;20232;-74
2022/03/03 11:30:15;;;;;;;6.75;4.72;;;;;;;4.26;57.45;94370.81;5050290;28;20196;-73
2022/03/03 11:32:42;;;;;;;9.60;5.72;;;;;;;4.23;57.71;94366.06;5049968;28;20207;-76
2022/03/03 11:35:12;;;;;;;9.98;5.63;;;;;;;4.39;58.02;94366.56;5050000;28;20208;-75
2022/03/03 11:37:40;;;;;;;15.75;6.25;;;;;;;4.53;56.99;94360.16;5053820;28;20235;-75
2022/03/03 11:40:08;;;;;;;8.75;4.85;;;;;;;4.58;57.02;94351.22;5054165;28;20219;-75
2022/03/03 11:42:38;;;;;;;9.70;5.15;;;;;;;4.35;57.55;94363.72;5054213;28;20228;-75